Time;durP1;ratioP1;P1;durP2;ratioP2;P2;SDS_P1;SDS_P2;PMS_P1;PMS_P2;Temp;Humidity;BMP_temperature;BMP_pressure;BME280_temperature;BME280_humidity;BME280_pressure;Samples;Min_cycle;Max_cycle;Signal;HPM_P1;HPM_P2
2023/06/06 00:01:45;;;;;;;11.30;7.47;;;;;13.90;101512.00;;;;10512299;28;20605;-81
2023/06/06 00:06:48;;;;;;;11.73;8.07;;;;;13.80;101504.00;;;;10532638;28;20238;-81
2023/06/06 00:11:50;;;;;;;12.83;8.27;;;;;13.70;101500.00;;;;10496227;28;20213;-83
2023/06/06 00:16:55;;;;;;;15.10;8.73;;;;;13.70;101502.00;;;;10515292;28;20229;-82
2023/06/06 00:22:01;;;;;;;13.03;8.23;;;;;13.60;101504.00;;;;10503025;28;20379;-82
2023/06/06 00:27:03;;;;;;;12.00;8.27;;;;;13.60;101499.00;;;;10522715;28;20252;-82
2023/06/06 00:32:06;;;;;;;13.17;8.83;;;;;13.50;101497.00;;;;10542279;28;20227;-81
2023/06/06 00:37:08;;;;;;;16.30;9.50;;;;;13.40;101505.00;;;;10519321;28;20201;-81
2023/06/06 00:42:10;;;;;;;15.80;9.73;;;;;13.40;101496.00;;;;10527686;28;20236;-76
2023/06/06 00:47:13;;;;;;;13.70;8.57;;;;;13.30;101498.00;;;;10519421;28;20304;-75
2023/06/06 00:52:16;;;;;;;14.03;8.73;;;;;13.30;101496.00;;;;10521454;28;20610;-75
2023/06/06 00:57:20;;;;;;;17.33;9.17;;;;;13.20;101496.00;;;;10505425;28;20675;-75
2023/06/06 01:02:24;;;;;;;16.97;9.03;;;;;13.10;101498.00;;;;10522107;28;20617;-75
2023/06/06 01:07:29;;;;;;;13.67;9.33;;;;;13.10;101502.00;;;;10491303;28;20221;-75
2023/06/06 01:12:49;;;;;;;13.90;9.23;;;;;13.00;101488.00;;;;10507400;28;20197;-75
2023/06/06 01:17:52;;;;;;;14.00;8.70;;;;;12.90;101490.00;;;;10521653;28;20201;-75
2023/06/06 01:22:56;;;;;;;12.53;8.80;;;;;12.90;101485.00;;;;10517512;28;20633;-75
2023/06/06 01:28:00;;;;;;;14.23;8.63;;;;;12.80;101490.00;;;;10521545;28;20236;-75
2023/06/06 01:33:14;;;;;;;14.40;9.83;;;;;12.80;101491.00;;;;10523102;28;20229;-75
2023/06/06 01:38:20;;;;;;;17.17;9.27;;;;;12.70;101487.00;;;;10516561;28;20197;-75
2023/06/06 01:43:25;;;;;;;15.43;8.97;;;;;12.70;101491.00;;;;10503685;28;20208;-75
2023/06/06 01:48:29;;;;;;;16.63;9.97;;;;;12.60;101489.00;;;;10515628;28;20229;-75
2023/06/06 01:53:32;;;;;;;15.77;9.73;;;;;12.50;101496.00;;;;10527989;28;20200;-76
2023/06/06 01:58:34;;;;;;;13.63;9.00;;;;;12.50;101501.00;;;;10520532;28;20645;-75
2023/06/06 02:03:36;;;;;;;17.13;9.90;;;;;12.40;101502.00;;;;10526263;28;20256;-79
2023/06/06 02:08:39;;;;;;;15.20;9.73;;;;;12.30;101512.00;;;;10493436;28;20197;-80
2023/06/06 02:13:42;;;;;;;15.23;9.77;;;;;12.20;101509.00;;;;10513091;28;20558;-79
2023/06/06 02:18:45;;;;;;;16.93;9.87;;;;;12.20;101508.00;;;;10523667;28;20231;-79
2023/06/06 02:23:47;;;;;;;17.07;9.20;;;;;12.10;101511.00;;;;10517556;28;20574;-81
2023/06/06 02:28:49;;;;;;;17.10;10.10;;;;;12.00;101503.00;;;;10538536;28;20242;-81
2023/06/06 02:33:51;;;;;;;15.30;10.37;;;;;12.00;101504.00;;;;10525491;28;20588;-72
2023/06/06 02:38:53;;;;;;;18.10;10.87;;;;;12.00;101507.00;;;;10512620;28;20590;-72
2023/06/06 02:43:55;;;;;;;18.43;9.77;;;;;11.90;101504.00;;;;10513723;28;20217;-72
2023/06/06 02:48:58;;;;;;;17.23;10.67;;;;;11.90;101505.00;;;;10505951;28;20610;-72
2023/06/06 02:54:01;;;;;;;17.50;10.40;;;;;11.90;101498.00;;;;10513778;28;20544;-72
2023/06/06 02:59:03;;;;;;;18.53;10.53;;;;;11.80;101505.00;;;;10504571;28;20201;-72
2023/06/06 03:04:05;;;;;;;20.07;11.43;;;;;11.80;101509.00;;;;10511434;28;20227;-73
2023/06/06 03:09:09;;;;;;;15.83;10.20;;;;;11.80;101517.00;;;;10507189;28;20205;-72
2023/06/06 03:14:12;;;;;;;17.90;10.30;;;;;11.70;101509.00;;;;10493910;28;20247;-72
2023/06/06 03:19:15;;;;;;;17.53;10.40;;;;;11.70;101516.00;;;;10506989;28;20208;-75
2023/06/06 03:24:19;;;;;;;18.07;10.77;;;;;11.60;101514.00;;;;10522279;28;20622;-75
2023/06/06 03:29:21;;;;;;;16.30;10.50;;;;;11.60;101517.00;;;;10523946;28;20549;-75
2023/06/06 03:34:25;;;;;;;17.63;10.13;;;;;11.60;101517.00;;;;10518351;28;20207;-75
2023/06/06 03:39:28;;;;;;;19.43;11.00;;;;;11.60;101517.00;;;;10517065;28;20205;-75
2023/06/06 03:44:31;;;;;;;16.57;10.20;;;;;11.60;101522.00;;;;10536366;28;20208;-75
2023/06/06 03:49:36;;;;;;;17.50;9.97;;;;;11.60;101517.00;;;;10519099;28;20340;-75
2023/06/06 03:54:38;;;;;;;18.40;10.13;;;;;11.60;101521.00;;;;10534533;28;20200;-75
2023/06/06 03:59:41;;;;;;;14.13;9.50;;;;;11.70;101525.00;;;;10535925;28;20626;-75
2023/06/06 04:04:43;;;;;;;16.87;10.23;;;;;11.80;101516.00;;;;10513538;28;20309;-76
2023/06/06 04:09:46;;;;;;;17.80;11.07;;;;;11.90;101515.00;;;;10531364;28;20194;-75
2023/06/06 04:14:48;;;;;;;16.13;10.03;;;;;11.90;101508.00;;;;10519614;28;20214;-77
2023/06/06 04:19:51;;;;;;;17.33;10.07;;;;;12.00;101513.00;;;;10532372;28;20211;-79
2023/06/06 04:24:53;;;;;;;16.17;9.37;;;;;12.10;101518.00;;;;10521793;28;20300;-76
2023/06/06 04:29:57;;;;;;;22.33;11.20;;;;;12.10;101523.00;;;;10528195;28;20207;-75
2023/06/06 04:35:00;;;;;;;16.60;10.80;;;;;12.20;101518.00;;;;10525200;28;20216;-72
2023/06/06 04:40:11;;;;;;;15.17;10.60;;;;;12.30;101520.00;;;;10497875;28;20203;-72
2023/06/06 04:45:15;;;;;;;15.07;9.47;;;;;12.40;101519.00;;;;10477637;28;20248;-72
2023/06/06 04:50:19;;;;;;;15.93;10.17;;;;;12.60;101530.00;;;;10512661;28;20246;-71
2023/06/06 04:55:22;;;;;;;15.50;10.40;;;;;12.70;101519.00;;;;10492883;28;20276;-72
2023/06/06 05:00:25;;;;;;;13.87;9.67;;;;;12.90;101522.00;;;;10508735;28;20245;-74
2023/06/06 05:05:28;;;;;;;17.33;10.97;;;;;13.00;101519.00;;;;10510883;28;20252;-79
2023/06/06 05:10:30;;;;;;;16.00;10.67;;;;;13.30;101526.00;;;;10517186;28;20204;-81
2023/06/06 05:15:32;;;;;;;15.70;9.93;;;;;13.60;101524.00;;;;10518440;28;20208;-73
2023/06/06 05:20:34;;;;;;;15.37;10.17;;;;;13.80;101541.00;;;;10509056;28;20213;-73
2023/06/06 05:25:36;;;;;;;13.20;9.13;;;;;14.20;101545.00;;;;10535593;28;20229;-73
2023/06/06 05:30:38;;;;;;;14.60;9.87;;;;;14.30;101535.00;;;;10525011;28;20283;-80
2023/06/06 05:35:40;;;;;;;15.43;9.83;;;;;14.50;101539.00;;;;10520070;28;20219;-79
2023/06/06 05:40:43;;;;;;;16.30;10.03;;;;;15.00;101535.00;;;;10515529;28;20686;-79
2023/06/06 05:45:45;;;;;;;15.73;10.17;;;;;15.20;101549.00;;;;10527343;28;20302;-77
2023/06/06 05:50:47;;;;;;;15.20;10.07;;;;;15.50;101546.00;;;;10520673;28;20609;-81
2023/06/06 05:55:49;;;;;;;18.87;10.27;;;;;15.80;101536.00;;;;10520560;28;20204;-80
2023/06/06 06:00:52;;;;;;;14.50;9.90;;;;;16.10;101547.00;;;;10496706;28;20639;-76
2023/06/06 06:06:02;;;;;;;17.03;10.93;;;;;16.10;101541.00;;;;10509838;28;20217;-76
2023/06/06 06:11:07;;;;;;;17.90;10.33;;;;;16.60;101544.00;;;;10520981;28;20228;-83
2023/06/06 06:16:10;;;;;;;13.50;9.47;;;;;16.90;101538.00;;;;10541527;28;20212;-84
2023/06/06 06:21:12;;;;;;;15.30;9.85;;;;;17.20;101551.00;;;;10520203;28;20207;-83
2023/06/06 06:26:15;;;;;;;14.13;10.23;;;;;17.10;101552.00;;;;10502908;28;20222;-83
2023/06/06 06:31:17;;;;;;;14.23;9.90;;;;;17.40;101544.00;;;;10495037;28;20671;-82
2023/06/06 06:36:20;;;;;;;13.30;10.20;;;;;17.80;101545.00;;;;10519614;28;20325;-82
2023/06/06 06:41:23;;;;;;;13.27;10.20;;;;;18.20;101556.00;;;;10503348;28;20193;-84
2023/06/06 06:46:25;;;;;;;15.13;10.70;;;;;18.50;101562.00;;;;10502947;28;20263;-81
2023/06/06 06:51:29;;;;;;;15.55;10.32;;;;;18.90;101564.00;;;;10491255;28;20208;-79
2023/06/06 06:56:32;;;;;;;14.15;10.50;;;;;19.20;101561.00;;;;10474979;28;20547;-78
2023/06/06 07:01:37;;;;;;;14.18;10.55;;;;;19.40;101555.00;;;;10516862;28;20201;-79
2023/06/06 07:06:39;;;;;;;14.60;11.18;;;;;19.80;101554.00;;;;10508303;28;20221;-79
2023/06/06 07:11:41;;;;;;;14.38;9.52;;;;;20.30;101550.00;;;;10530994;27;20278;-79
2023/06/06 07:16:43;;;;;;;11.95;9.70;;;;;20.50;101553.00;;;;10522785;28;20208;-79
2023/06/06 07:21:45;;;;;;;15.75;9.80;;;;;21.00;101551.00;;;;10508824;28;20212;-79
2023/06/06 07:26:47;;;;;;;16.23;9.40;;;;;21.20;101548.00;;;;10521395;28;20220;-80
2023/06/06 07:31:50;;;;;;;13.90;10.20;;;;;21.40;101547.00;;;;10502132;28;20289;-80
2023/06/06 07:36:52;;;;;;;12.52;10.23;;;;;21.90;101541.00;;;;10499306;28;20198;-78
2023/06/06 07:41:54;;;;;;;14.50;11.05;;;;;21.60;101543.00;;;;10500608;28;20594;-79
2023/06/06 07:46:56;;;;;;;14.48;9.93;;;;;22.00;101540.00;;;;10504437;28;20231;-78
2023/06/06 07:51:58;;;;;;;14.40;10.48;;;;;22.70;101541.00;;;;10499958;28;20209;-79
2023/06/06 07:57:01;;;;;;;11.90;9.32;;;;;23.00;101528.00;;;;10478259;28;20201;-80
2023/06/06 08:02:04;;;;;;;13.35;9.13;;;;;23.30;101536.00;;;;10494982;28;20197;-80
2023/06/06 08:07:06;;;;;;;13.73;9.93;;;;;24.00;101538.00;;;;10494566;28;20224;-74
2023/06/06 08:12:09;;;;;;;14.20;9.65;;;;;24.10;101535.00;;;;10474993;28;20225;-75
2023/06/06 08:17:12;;;;;;;13.50;9.82;;;;;24.30;101538.00;;;;10491659;28;20205;-81
2023/06/06 08:22:15;;;;;;;12.32;9.82;;;;;24.80;101543.00;;;;10495320;28;20276;-81
2023/06/06 08:27:17;;;;;;;13.82;10.48;;;;;24.80;101535.00;;;;10492735;28;20244;-81
2023/06/06 08:32:19;;;;;;;18.70;10.63;;;;;25.10;101528.00;;;;10480299;28;20663;-81
2023/06/06 08:37:21;;;;;;;12.57;9.90;;;;;25.90;101531.00;;;;10494651;28;20193;-73
2023/06/06 08:42:28;;;;;;;13.18;9.88;;;;;25.90;101529.00;;;;10493221;28;20247;-73
2023/06/06 08:47:31;;;;;;;14.02;10.32;;;;;26.10;101518.00;;;;10494437;28;20586;-74
2023/06/06 08:52:34;;;;;;;14.77;10.60;;;;;26.30;101521.00;;;;10494950;28;20198;-73
2023/06/06 08:57:41;;;;;;;16.67;9.98;;;;;26.70;101527.00;;;;10478462;28;20201;-74
2023/06/06 09:02:46;;;;;;;17.60;10.63;;;;;27.00;101508.00;;;;10492620;28;20225;-75
2023/06/06 09:07:49;;;;;;;11.63;9.98;;;;;27.10;101506.00;;;;10505944;27;20251;-80
2023/06/06 09:12:52;;;;;;;14.10;11.02;;;;;27.50;101512.00;;;;10515840;27;20655;-80
2023/06/06 09:17:54;;;;;;;14.48;10.80;;;;;27.80;101500.00;;;;10525245;27;20609;-81
2023/06/06 09:23:00;;;;;;;12.00;9.82;;;;;27.80;101506.00;;;;10525415;27;20663;-81
2023/06/06 09:28:03;;;;;;;17.65;10.75;;;;;27.70;101506.00;;;;10510971;28;20237;-82
2023/06/06 09:33:05;;;;;;;13.10;10.27;;;;;28.60;101502.00;;;;10526544;28;20204;-82
2023/06/06 09:38:15;;;;;;;15.98;10.10;;;;;28.80;101508.00;;;;10496241;28;20190;-80
2023/06/06 09:43:30;;;;;;;12.02;9.32;;;;;29.00;101497.00;;;;10512699;27;20697;-81
2023/06/06 09:48:32;;;;;;;16.80;10.25;;;;;29.40;101501.00;;;;10523967;27;20645;-81
2023/06/06 09:53:36;;;;;;;16.92;10.25;;;;;29.30;101494.00;;;;10514587;27;20208;-80
2023/06/06 09:58:39;;;;;;;13.95;9.65;;;;;29.40;101505.00;;;;10508484;28;20567;-80
2023/06/06 10:03:41;;;;;;;13.68;9.85;;;;;29.70;101494.00;;;;10503790;28;20201;-82
2023/06/06 10:08:46;;;;;;;11.90;9.88;;;;;29.90;101502.00;;;;10520614;28;20244;-81
2023/06/06 10:13:50;;;;;;;13.05;10.00;;;;;30.30;101492.00;;;;10522751;27;20562;-81
2023/06/06 10:18:53;;;;;;;14.68;9.50;;;;;30.60;101487.00;;;;10508154;28;20200;-82
2023/06/06 10:23:55;;;;;;;12.75;8.23;;;;;30.10;101493.00;;;;10510406;28;20240;-83
2023/06/06 10:29:08;;;;;;;13.75;8.82;;;;;30.50;101488.00;;;;10514625;28;20229;-83
2023/06/06 10:34:21;;;;;;;11.68;8.68;;;;;31.20;101486.00;;;;10515270;28;20235;-83
2023/06/06 10:39:28;;;;;;;10.05;8.43;;;;;31.30;101491.00;;;;10504521;28;20255;-84
2023/06/06 10:44:42;;;;;;;9.40;7.97;;;;;31.00;101485.00;;;;10504580;28;20229;-83
2023/06/06 10:50:03;;;;;;;12.43;9.43;;;;;30.10;101475.00;;;;10498510;28;20199;-83
2023/06/06 10:55:16;;;;;;;13.02;8.60;;;;;29.70;101480.00;;;;10505085;28;20203;-83
2023/06/06 11:00:25;;;;;;;13.43;9.63;;;;;30.10;101464.00;;;;10504369;28;20205;-83
2023/06/06 11:05:28;;;;;;;10.25;8.68;;;;;30.40;101458.00;;;;10503783;28;20633;-82
2023/06/06 11:10:48;;;;;;;12.68;8.32;;;;;30.60;101461.00;;;;10505460;28;20247;-79
2023/06/06 11:15:56;;;;;;;9.65;8.27;;;;;31.20;101461.00;;;;10488655;28;20650;-80
2023/06/06 11:20:58;;;;;;;9.70;8.18;;;;;31.50;101448.00;;;;10508310;28;20205;-80
2023/06/06 11:26:00;;;;;;;10.93;8.70;;;;;32.40;101453.00;;;;10505423;27;20243;-79
2023/06/06 11:31:03;;;;;;;9.73;7.85;;;;;32.40;101449.00;;;;10516357;27;20204;-80
2023/06/06 11:36:09;;;;;;;11.23;8.57;;;;;32.70;101447.00;;;;10532028;27;20232;-80
2023/06/06 11:41:11;;;;;;;8.93;7.63;;;;;32.80;101444.00;;;;10528657;28;20201;-80
2023/06/06 11:46:16;;;;;;;8.82;7.60;;;;;33.40;101436.00;;;;10527256;27;20216;-79
2023/06/06 11:51:18;;;;;;;10.52;7.47;;;;;33.50;101425.00;;;;10518409;27;20656;-80
2023/06/06 11:56:21;;;;;;;8.45;7.30;;;;;33.70;101430.00;;;;10507032;28;20563;-80
2023/06/06 12:01:24;;;;;;;9.85;7.05;;;;;33.60;101434.00;;;;10507449;27;20570;-80
2023/06/06 12:06:26;;;;;;;9.68;7.53;;;;;33.90;101414.00;;;;10516090;27;20308;-79
2023/06/06 12:11:31;;;;;;;9.60;6.70;;;;;34.30;101410.00;;;;10541591;27;20208;-72
2023/06/06 12:16:33;;;;;;;6.82;6.13;;;;;34.00;101402.00;;;;10489247;28;20216;-74
2023/06/06 12:21:51;;;;;;;8.32;5.55;;;;;33.90;101401.00;;;;10514771;28;20201;-83
2023/06/06 12:26:59;;;;;;;11.07;6.18;;;;;34.10;101398.00;;;;10510842;28;20260;-75
2023/06/06 12:32:16;;;;;;;8.10;6.03;;;;;34.20;101400.00;;;;10512746;28;20197;-75
2023/06/06 12:37:18;;;;;;;7.45;6.07;;;;;34.00;101387.00;;;;10510834;28;20581;-76
2023/06/06 12:42:20;;;;;;;7.20;4.97;;;;;34.10;101385.00;;;;10517758;28;20244;-75
2023/06/06 12:47:23;;;;;;;9.60;5.18;;;;;34.00;101382.00;;;;10518757;28;20205;-76
2023/06/06 12:52:28;;;;;;;8.18;6.10;;;;;33.90;101381.00;;;;10532597;28;20197;-75
2023/06/06 12:57:30;;;;;;;8.23;5.10;;;;;33.50;101383.00;;;;10526139;28;20221;-75
2023/06/06 13:02:33;;;;;;;6.15;4.60;;;;;33.30;101388.00;;;;10526769;28;20597;-80
2023/06/06 13:07:36;;;;;;;5.57;4.97;;;;;33.50;101384.00;;;;10544392;28;20192;-77
2023/06/06 13:12:40;;;;;;;6.15;4.10;;;;;33.70;101360.00;;;;10502367;28;20753;-76
2023/06/06 13:17:42;;;;;;;6.45;4.80;;;;;33.50;101374.00;;;;10511630;28;20244;-75
2023/06/06 13:22:44;;;;;;;14.07;5.20;;;;;33.30;101378.00;;;;10498923;28;20547;-75
2023/06/06 13:27:48;;;;;;;6.68;4.43;;;;;33.20;101363.00;;;;10504585;28;20202;-83
2023/06/06 13:32:49;;;;;;;7.55;3.85;;;;;33.30;101356.00;;;;10498279;28;20205;-76
2023/06/06 13:37:52;;;;;;;7.30;5.10;;;;;33.30;101346.00;;;;10500108;28;20217;-73
2023/06/06 13:42:54;;;;;;;8.85;4.22;;;;;33.50;101355.00;;;;10498680;28;20197;-71
2023/06/06 13:47:57;;;;;;;4.38;3.72;;;;;33.40;101356.00;;;;10493282;28;20259;-75
2023/06/06 13:52:59;;;;;;;5.38;3.83;;;;;32.90;101341.00;;;;10490053;28;20212;-75
2023/06/06 13:58:03;;;;;;;4.60;3.90;;;;;32.90;101337.00;;;;10501582;28;20757;-81
2023/06/06 14:03:06;;;;;;;6.60;3.20;;;;;32.80;101337.00;;;;10522628;27;20279;-74
2023/06/06 14:08:09;;;;;;;5.78;3.17;;;;;32.80;101330.00;;;;10504046;28;20201;-75
2023/06/06 14:13:12;;;;;;;5.97;3.17;;;;;33.00;101333.00;;;;10508728;28;20201;-75
2023/06/06 14:18:14;;;;;;;3.17;2.88;;;;;33.10;101326.00;;;;10532802;27;20304;-75
2023/06/06 14:23:16;;;;;;;7.03;3.33;;;;;33.40;101325.00;;;;10513031;28;20208;-72
2023/06/06 14:28:19;;;;;;;5.32;3.13;;;;;33.40;101340.00;;;;10526478;28;20209;-72
2023/06/06 14:33:21;;;;;;;4.93;2.63;;;;;31.60;101335.00;;;;10509284;28;20554;-73
2023/06/06 14:38:24;;;;;;;4.90;2.50;;;;;30.00;101336.00;;;;10532353;28;20678;-82
2023/06/06 14:43:26;;;;;;;3.88;2.38;;;;;29.40;101327.00;;;;10510534;28;20240;-74
2023/06/06 14:48:29;;;;;;;4.03;2.92;;;;;31.30;101321.00;;;;10501585;28;20300;-73
2023/06/06 14:53:31;;;;;;;4.72;2.58;;;;;32.70;101317.00;;;;10525692;28;20649;-77
2023/06/06 14:58:33;;;;;;;3.03;2.72;;;;;34.00;101314.00;;;;10507501;28;20712;-75
2023/06/06 15:03:35;;;;;;;3.85;2.72;;;;;35.40;101312.00;;;;10504309;28;20240;-72
2023/06/06 15:08:37;;;;;;;4.22;2.38;;;;;36.70;101311.00;;;;10505407;28;20201;-82
2023/06/06 15:13:39;;;;;;;4.43;2.20;;;;;38.10;101297.00;;;;10511094;28;20211;-83
2023/06/06 15:18:41;;;;;;;5.00;2.97;;;;;38.80;101301.00;;;;10527730;28;20222;-82
2023/06/06 15:23:43;;;;;;;4.45;2.65;;;;;38.80;101297.00;;;;10511599;28;20204;-82
2023/06/06 15:28:46;;;;;;;6.57;2.80;;;;;38.10;101295.00;;;;10531043;27;20273;-72
2023/06/06 15:33:48;;;;;;;5.18;2.40;;;;;33.80;101295.00;;;;10529734;27;20234;-72
2023/06/06 15:38:50;;;;;;;4.72;3.10;;;;;32.20;101288.00;;;;10525147;28;20713;-72
2023/06/06 15:43:55;;;;;;;5.65;3.00;;;;;31.30;101288.00;;;;10527787;28;20201;-71
2023/06/06 15:48:58;;;;;;;5.78;3.03;;;;;30.40;101274.00;;;;10548302;27;20271;-72
2023/06/06 15:54:00;;;;;;;4.22;2.97;;;;;29.90;101279.00;;;;10548458;27;20246;-75
2023/06/06 15:59:02;;;;;;;5.68;3.78;;;;;29.60;101269.00;;;;10509095;28;20214;-71
2023/06/06 16:04:04;;;;;;;4.60;2.85;;;;;29.30;101268.00;;;;10512464;28;20237;-72
2023/06/06 16:09:06;;;;;;;4.07;3.33;;;;;29.10;101268.00;;;;10539955;27;20651;-81
2023/06/06 16:14:08;;;;;;;10.13;3.20;;;;;28.80;101257.00;;;;10546713;27;20206;-74
2023/06/06 16:19:10;;;;;;;4.65;3.00;;;;;28.30;101262.00;;;;10528492;27;20216;-75
2023/06/06 16:24:13;;;;;;;4.05;2.80;;;;;28.40;101252.00;;;;10485506;28;20271;-75
2023/06/06 16:29:15;;;;;;;4.50;3.65;;;;;28.50;101257.00;;;;10486627;28;20201;-72
2023/06/06 16:34:17;;;;;;;6.00;3.20;;;;;28.60;101262.00;;;;10502889;28;20240;-73
2023/06/06 16:39:20;;;;;;;5.03;3.95;;;;;28.50;101263.00;;;;10490398;28;20221;-73
2023/06/06 16:44:22;;;;;;;5.10;3.60;;;;;28.50;101264.00;;;;10484741;28;20599;-72
2023/06/06 16:49:24;;;;;;;7.97;3.40;;;;;28.20;101261.00;;;;10537533;28;20201;-72
2023/06/06 16:54:26;;;;;;;8.00;3.25;;;;;27.90;101264.00;;;;10502531;28;20610;-72
2023/06/06 16:59:29;;;;;;;6.25;3.35;;;;;27.80;101255.00;;;;10502448;28;20213;-73
2023/06/06 17:04:31;;;;;;;4.03;2.90;;;;;27.50;101256.00;;;;10525550;27;20220;-72
2023/06/06 17:09:34;;;;;;;5.22;3.40;;;;;27.30;101258.00;;;;10544724;27;20570;-75
2023/06/06 17:14:36;;;;;;;6.18;3.72;;;;;27.20;101262.00;;;;10505543;28;20205;-71
2023/06/06 17:19:38;;;;;;;4.72;3.20;;;;;27.00;101260.00;;;;10483185;28;20213;-72
2023/06/06 17:24:41;;;;;;;7.18;3.20;;;;;26.70;101256.00;;;;10501119;28;20251;-72
2023/06/06 17:29:43;;;;;;;4.07;3.65;;;;;26.80;101248.00;;;;10501095;28;20186;-72
2023/06/06 17:34:45;;;;;;;4.30;3.50;;;;;26.80;101253.00;;;;10482927;28;20200;-73
2023/06/06 17:39:48;;;;;;;5.03;3.30;;;;;26.70;101248.00;;;;10501706;28;20219;-80
2023/06/06 17:44:53;;;;;;;6.60;3.80;;;;;26.70;101253.00;;;;10482712;28;20663;-76
2023/06/06 17:49:56;;;;;;;7.03;3.88;;;;;26.70;101262.00;;;;10501401;28;20212;-75
2023/06/06 17:55:00;;;;;;;9.20;4.50;;;;;26.50;101267.00;;;;10531373;28;20201;-75
2023/06/06 18:00:02;;;;;;;5.80;3.90;;;;;26.20;101272.00;;;;10496212;28;20278;-72
2023/06/06 18:05:09;;;;;;;6.85;4.30;;;;;25.80;101270.00;;;;10536593;27;20279;-75
2023/06/06 18:10:32;;;;;;;8.30;3.75;;;;;25.50;101267.00;;;;10543903;28;20275;-75
2023/06/06 18:15:34;;;;;;;9.27;4.57;;;;;25.40;101268.00;;;;10491117;28;20193;-74
2023/06/06 18:20:36;;;;;;;9.27;4.70;;;;;25.10;101268.00;;;;10501476;28;20283;-75
2023/06/06 18:25:38;;;;;;;6.93;4.22;;;;;24.90;101268.00;;;;10482883;28;20232;-76
2023/06/06 18:30:41;;;;;;;8.82;4.40;;;;;24.70;101278.00;;;;10500104;28;20555;-82
2023/06/06 18:35:44;;;;;;;9.52;4.85;;;;;24.50;101273.00;;;;10481500;28;20274;-72
2023/06/06 18:40:46;;;;;;;9.18;4.88;;;;;24.20;101286.00;;;;10499395;28;20578;-72
2023/06/06 18:45:48;;;;;;;9.57;5.03;;;;;24.00;101282.00;;;;10505604;28;20604;-72
2023/06/06 18:50:51;;;;;;;7.60;4.93;;;;;23.90;101284.00;;;;10496835;28;20223;-81
2023/06/06 18:55:54;;;;;;;7.93;5.32;;;;;23.70;101292.00;;;;10545197;27;20197;-82
2023/06/06 19:00:56;;;;;;;9.88;5.68;;;;;23.40;101294.00;;;;10534261;27;20645;-81
2023/06/06 19:05:58;;;;;;;8.32;5.22;;;;;23.20;101295.00;;;;10522809;27;20270;-76
2023/06/06 19:11:01;;;;;;;10.85;5.63;;;;;23.00;101302.00;;;;10547542;27;20732;-76
2023/06/06 19:16:04;;;;;;;8.15;5.60;;;;;22.80;101298.00;;;;10530688;28;20645;-82
2023/06/06 19:21:06;;;;;;;9.27;5.55;;;;;22.70;101303.00;;;;10550261;27;20226;-73
2023/06/06 19:26:10;;;;;;;8.27;6.03;;;;;22.40;101309.00;;;;10548720;27;20287;-81
2023/06/06 19:31:12;;;;;;;8.82;5.82;;;;;22.20;101322.00;;;;10549410;27;20639;-81
2023/06/06 19:36:15;;;;;;;11.82;6.20;;;;;22.00;101326.00;;;;10564391;27;20591;-81
2023/06/06 19:41:17;;;;;;;8.25;6.05;;;;;21.70;101337.00;;;;10549490;27;20199;-81
2023/06/06 19:46:19;;;;;;;11.95;6.85;;;;;21.50;101347.00;;;;10547142;27;20204;-81
2023/06/06 19:51:21;;;;;;;12.30;6.57;;;;;21.30;101355.00;;;;10510510;28;20629;-81
2023/06/06 19:56:23;;;;;;;16.25;7.10;;;;;21.10;101367.00;;;;10504754;28;20237;-81
2023/06/06 20:01:25;;;;;;;11.93;6.80;;;;;20.90;101379.00;;;;10504749;28;20201;-81
2023/06/06 20:06:32;;;;;;;16.88;6.63;;;;;20.70;101379.00;;;;10502962;28;20193;-81
2023/06/06 20:11:35;;;;;;;13.40;7.63;;;;;20.60;101394.00;;;;10509507;27;20231;-82
2023/06/06 20:16:36;;;;;;;15.38;7.65;;;;;20.40;101396.00;;;;10545996;27;20627;-81
2023/06/06 20:21:38;;;;;;;12.77;7.53;;;;;20.20;101398.00;;;;10532803;27;20220;-80
2023/06/06 20:26:40;;;;;;;12.60;7.28;;;;;20.10;101399.00;;;;10509013;27;20212;-81
2023/06/06 20:31:44;;;;;;;12.57;7.40;;;;;19.90;101410.00;;;;10537145;28;20254;-82
2023/06/06 20:36:47;;;;;;;13.25;7.80;;;;;19.80;101414.00;;;;10496138;28;20224;-82
2023/06/06 20:41:50;;;;;;;13.25;6.57;;;;;19.60;101408.00;;;;10486396;28;20255;-81
2023/06/06 20:46:52;;;;;;;11.73;7.70;;;;;19.50;101408.00;;;;10515690;27;20295;-81
2023/06/06 20:51:55;;;;;;;12.30;7.97;;;;;19.40;101405.00;;;;10530987;27;20196;-82
2023/06/06 20:56:57;;;;;;;16.40;8.35;;;;;19.20;101404.00;;;;10545172;27;20220;-79
2023/06/06 21:01:59;;;;;;;12.20;7.82;;;;;19.10;101404.00;;;;10544679;27;20205;-82
2023/06/06 21:07:01;;;;;;;18.10;8.77;;;;;18.90;101410.00;;;;10505656;28;20283;-81
2023/06/06 21:12:04;;;;;;;12.32;8.07;;;;;18.80;101408.00;;;;10526795;27;20192;-78
2023/06/06 21:17:06;;;;;;;13.05;8.23;;;;;18.70;101413.00;;;;10509705;27;20236;-81
2023/06/06 21:22:08;;;;;;;11.75;7.80;;;;;18.60;101411.00;;;;10542288;27;20220;-81
2023/06/06 21:27:10;;;;;;;14.95;8.23;;;;;18.50;101418.00;;;;10518029;27;20221;-81
2023/06/06 21:32:12;;;;;;;14.32;8.50;;;;;18.40;101415.00;;;;10518731;28;20205;-80
2023/06/06 21:37:14;;;;;;;18.38;8.05;;;;;18.30;101428.00;;;;10499409;28;20207;-81
2023/06/06 21:42:16;;;;;;;19.30;8.55;;;;;18.20;101423.00;;;;10529222;27;20670;-82
2023/06/06 21:47:18;;;;;;;12.07;8.13;;;;;18.10;101432.00;;;;10534560;28;20566;-81
2023/06/06 21:52:21;;;;;;;12.73;7.28;;;;;18.00;101427.00;;;;10521889;27;20216;-81
2023/06/06 21:57:23;;;;;;;14.10;7.78;;;;;17.90;101422.00;;;;10531660;27;20198;-80
2023/06/06 22:02:25;;;;;;;13.93;7.53;;;;;17.80;101426.00;;;;10499812;28;20643;-72
2023/06/06 22:07:27;;;;;;;14.85;8.40;;;;;17.70;101434.00;;;;10500780;28;20221;-71
2023/06/06 22:12:29;;;;;;;20.67;8.52;;;;;17.60;101421.00;;;;10501227;28;20281;-74
2023/06/06 22:17:31;;;;;;;11.65;7.55;;;;;17.50;101433.00;;;;10500991;28;20228;-75
2023/06/06 22:22:33;;;;;;;18.27;8.10;;;;;17.40;101430.00;;;;10499402;28;20206;-72
2023/06/06 22:27:37;;;;;;;18.65;7.82;;;;;17.30;101429.00;;;;10497904;28;20548;-72
2023/06/06 22:32:39;;;;;;;13.23;8.40;;;;;17.20;101428.00;;;;10504975;28;20654;-72
2023/06/06 22:37:41;;;;;;;17.42;8.25;;;;;17.10;101423.00;;;;10509479;28;20681;-72
2023/06/06 22:42:43;;;;;;;13.30;8.25;;;;;17.00;101430.00;;;;10500247;28;20202;-72
2023/06/06 22:47:45;;;;;;;15.02;7.43;;;;;16.90;101428.00;;;;10520452;28;20292;-80
2023/06/06 22:52:48;;;;;;;10.60;7.85;;;;;16.80;101440.00;;;;10509808;28;20205;-82
2023/06/06 22:57:50;;;;;;;12.18;9.02;;;;;16.80;101433.00;;;;10491778;28;20225;-72
2023/06/06 23:02:52;;;;;;;13.63;8.00;;;;;16.70;101431.00;;;;10508950;28;20221;-72
2023/06/06 23:07:54;;;;;;;15.65;7.47;;;;;16.60;101441.00;;;;10509153;28;20276;-75
2023/06/06 23:12:56;;;;;;;17.95;8.95;;;;;16.60;101439.00;;;;10494969;27;20199;-75
2023/06/06 23:17:58;;;;;;;15.73;7.82;;;;;16.60;101445.00;;;;10510582;27;20611;-79
2023/06/06 23:23:00;;;;;;;12.68;8.82;;;;;16.50;101440.00;;;;10507950;28;20682;-72
2023/06/06 23:28:03;;;;;;;13.30;8.50;;;;;16.40;101432.00;;;;10512521;28;20277;-72
2023/06/06 23:33:05;;;;;;;16.47;8.10;;;;;16.30;101438.00;;;;10492335;28;20201;-72
2023/06/06 23:38:07;;;;;;;10.87;8.33;;;;;16.20;101434.00;;;;10531515;28;20197;-71
2023/06/06 23:43:09;;;;;;;15.97;8.27;;;;;16.10;101441.00;;;;10495845;27;20655;-71
2023/06/06 23:48:11;;;;;;;12.83;8.30;;;;;16.00;101438.00;;;;10499977;28;20233;-72
2023/06/06 23:53:13;;;;;;;20.47;9.00;;;;;15.90;101444.00;;;;10501100;28;20201;-71
2023/06/06 23:58:15;;;;;;;18.73;9.10;;;;;15.90;101451.00;;;;10493266;28;20559;-72
